ePrivacy and GPDR Cookie Consent by Cookie Consent
EmailTwitter


Surface observations / United Kingdom / EGLL (03772)

Regions: Quebec | Canada | USA | Europe | France | UK | Elsewhere
Station
Display
Info & Location for EGLL (03772) | Help decoding METAR

Weather Conditions observed on 2021/12/05 at 21:50 UTC at LONDON/HEATHROW, UK (EGLL)

Sky conditions: variable clouds.

Temperature: 5.0 Celsius.

Dewpoint: 3.0 Celsius.

Relative Humidity: 87%

Windchill Factor: 3.

Winds: Northwest at 9 km/h or 5 knots.

Mean Sea level Pressure: 101.40 kilopascals.

Horizontal visibility: 6.21 statute miles or 9.94 kilometers.

Coded METAR:

EGLL 052150Z AUTO 33005KT 260V010 9999 SCT033 05/03 Q1014=